createdAt,value
2022-08-12T00:00:04.099Z,15.75
2022-08-12T00:05:13.059Z,15.55
2022-08-12T00:10:21.077Z,15.55
2022-08-12T00:15:29.140Z,15.55
2022-08-12T00:20:37.060Z,15.35
2022-08-12T00:25:44.578Z,15.35
2022-08-12T00:30:54.804Z,15.35
2022-08-12T00:36:02.143Z,15.35
2022-08-12T00:41:09.458Z,15.35
2022-08-12T00:46:16.545Z,15.15
2022-08-12T00:51:23.965Z,15.15
2022-08-12T00:56:31.817Z,15.15
2022-08-12T01:01:38.309Z,15.35
2022-08-12T01:06:46.490Z,15.15
2022-08-12T01:11:53.956Z,15.35
2022-08-12T01:17:02.039Z,15.35
2022-08-12T01:22:09.703Z,15.35
2022-08-12T01:27:17.847Z,15.35
2022-08-12T01:32:25.323Z,15.35
2022-08-12T01:37:33.413Z,15.15
2022-08-12T01:42:41.176Z,14.95
2022-08-12T01:47:48.837Z,14.75
2022-08-12T01:52:55.897Z,14.45
2022-08-12T01:58:03.607Z,14.25
2022-08-12T02:03:11.645Z,14.25
2022-08-12T02:08:20.629Z,14.25
2022-08-12T02:13:29.282Z,14.25
2022-08-12T02:18:37.764Z,14.45
2022-08-12T02:23:45.709Z,14.25
2022-08-12T02:28:56.530Z,14.45
2022-08-12T02:34:03.736Z,14.25
2022-08-12T02:39:10.974Z,14.25
2022-08-12T02:44:19.909Z,14.05
2022-08-12T02:49:26.679Z,14.05
2022-08-12T02:54:34.451Z,14.05
2022-08-12T02:59:41.856Z,13.85
2022-08-12T03:04:49.631Z,13.85
2022-08-12T03:09:57.605Z,13.65
2022-08-12T03:15:05.876Z,13.65
2022-08-12T03:20:13.693Z,13.65
2022-08-12T03:25:20.850Z,13.45
2022-08-12T03:30:29.884Z,13.45
2022-08-12T03:35:36.636Z,13.45
2022-08-12T03:40:44.420Z,13.45
2022-08-12T03:45:52.085Z,13.45
2022-08-12T03:51:00.030Z,13.65
2022-08-12T03:56:08.267Z,13.65
2022-08-12T04:01:16.564Z,13.85
2022-08-12T04:06:24.719Z,13.85
2022-08-12T04:11:32.080Z,14.05
2022-08-12T04:16:40.403Z,14.25
2022-08-12T04:21:48.371Z,14.75
2022-08-12T04:26:56.218Z,15.35
2022-08-12T04:32:04.733Z,15.95
2022-08-12T04:37:11.902Z,16.65
2022-08-12T04:42:18.454Z,17.05
2022-08-12T04:47:27.644Z,17.65
2022-08-12T04:52:35.840Z,18.55
2022-08-12T04:57:44.536Z,19.15
2022-08-12T05:02:52.619Z,19.85
2022-08-12T05:08:00.214Z,20.25
2022-08-12T05:13:08.176Z,20.95
2022-08-12T05:18:16.445Z,21.35
2022-08-12T05:23:24.610Z,22.05
2022-08-12T05:28:31.832Z,22.45
2022-08-12T05:33:38.778Z,22.95
2022-08-12T05:38:45.980Z,23.15
2022-08-12T05:43:55.060Z,23.55
2022-08-12T05:49:03.451Z,24.05
2022-08-12T05:54:11.640Z,24.65
2022-08-12T05:59:19.858Z,25.15
2022-08-12T06:04:27.901Z,25.85
2022-08-12T06:09:35.610Z,26.05
2022-08-12T06:14:42.814Z,26.25
2022-08-12T06:19:48.722Z,26.25
2022-08-12T06:24:56.994Z,26.25
2022-08-12T06:30:04.415Z,26.45
2022-08-12T06:35:16.695Z,26.45
2022-08-12T06:40:25.211Z,26.45
2022-08-12T06:45:32.966Z,26.45
2022-08-12T06:50:40.322Z,26.75
2022-08-12T06:55:48.139Z,26.75
2022-08-12T07:00:55.404Z,26.95
2022-08-12T07:06:04.728Z,26.95
2022-08-12T07:11:12.079Z,27.15
2022-08-12T07:16:18.777Z,27.15
2022-08-12T07:21:26.737Z,27.45
2022-08-12T07:26:34.581Z,27.65
2022-08-12T07:31:42.940Z,27.65
2022-08-12T07:36:51.130Z,27.85
2022-08-12T07:41:58.829Z,27.85
2022-08-12T07:47:07.445Z,28.05
2022-08-12T07:52:20.094Z,28.35
2022-08-12T07:57:27.798Z,28.35
2022-08-12T08:02:35.204Z,28.35
2022-08-12T08:07:44.308Z,28.55
2022-08-12T08:12:50.813Z,28.75
2022-08-12T08:17:58.005Z,28.75
2022-08-12T08:23:05.965Z,28.55
2022-08-12T08:28:13.725Z,28.75
2022-08-12T08:33:22.047Z,29.05
2022-08-12T08:38:29.981Z,29.05
2022-08-12T08:43:37.053Z,29.05
2022-08-12T08:48:45.482Z,29.05
2022-08-12T08:53:53.820Z,29.25
2022-08-12T08:59:01.003Z,29.75
2022-08-12T09:04:14.300Z,29.45
2022-08-12T09:09:21.519Z,29.95
2022-08-12T09:14:28.733Z,30.15
2022-08-12T09:19:35.906Z,30.45
2022-08-12T09:24:43.099Z,30.65
2022-08-12T09:29:50.336Z,30.85
2022-08-12T09:34:57.482Z,30.65
2022-08-12T09:40:05.578Z,30.15
2022-08-12T09:45:13.814Z,29.95
2022-08-12T09:50:21.054Z,29.95
2022-08-12T09:55:28.249Z,30.45
2022-08-12T10:00:36.474Z,30.85
2022-08-12T10:05:43.498Z,31.35
2022-08-12T10:10:51.683Z,31.35
2022-08-12T10:15:58.964Z,32.25
2022-08-12T10:21:06.332Z,32.55
2022-08-12T10:26:14.486Z,32.75
2022-08-12T10:31:22.339Z,33.05
2022-08-12T10:36:30.320Z,33.05
2022-08-12T10:41:38.439Z,33.05
2022-08-12T10:46:45.612Z,33.05
2022-08-12T10:51:53.753Z,33.25
2022-08-12T10:56:59.771Z,33.25
2022-08-12T11:02:13.764Z,33.45
2022-08-12T11:07:22.519Z,33.75
2022-08-12T11:12:29.890Z,33.95
2022-08-12T11:17:36.846Z,33.95
2022-08-12T11:22:44.258Z,33.95
2022-08-12T11:27:52.163Z,33.75
2022-08-12T11:32:59.091Z,33.75
2022-08-12T11:38:06.947Z,33.75
2022-08-12T11:43:14.747Z,33.95
2022-08-12T11:48:21.952Z,33.95
2022-08-12T11:53:29.916Z,33.75
2022-08-12T11:58:37.637Z,33.95
2022-08-12T12:03:45.210Z,33.95
2022-08-12T12:08:52.046Z,34.15
2022-08-12T12:13:59.240Z,33.95
2022-08-12T12:19:06.759Z,33.95
2022-08-12T12:24:15.133Z,33.95
2022-08-12T12:29:23.330Z,33.75
2022-08-12T12:34:30.582Z,33.45
2022-08-12T12:39:38.997Z,33.25
2022-08-12T12:44:46.996Z,33.25
2022-08-12T12:49:55.284Z,33.45
2022-08-12T12:55:04.434Z,33.95
2022-08-12T13:00:11.752Z,33.95
2022-08-12T13:05:18.341Z,33.95
2022-08-12T13:10:26.138Z,33.95
2022-08-12T13:15:33.799Z,33.75
2022-08-12T13:20:41.320Z,33.75
2022-08-12T13:25:49.056Z,33.95
2022-08-12T13:30:55.584Z,34.15
2022-08-12T13:36:04.512Z,34.45
2022-08-12T13:41:11.296Z,33.75
2022-08-12T13:46:19.086Z,32.75
2022-08-12T13:51:26.212Z,32.05
2022-08-12T13:56:33.964Z,31.15
2022-08-12T14:01:41.937Z,30.85
2022-08-12T14:06:50.329Z,31.35
2022-08-12T14:11:58.545Z,31.55
2022-08-12T14:17:07.424Z,32.55
2022-08-12T14:22:15.217Z,32.75
2022-08-12T14:27:24.253Z,33.25
2022-08-12T14:32:31.742Z,33.25
2022-08-12T14:37:39.478Z,33.45
2022-08-12T14:42:46.590Z,33.95
2022-08-12T14:47:54.374Z,34.45
2022-08-12T14:58:00.439Z,33.95
2022-08-12T15:03:07.842Z,34.45
2022-08-12T15:08:15.522Z,34.65
2022-08-12T15:13:22.173Z,34.15
2022-08-12T15:18:30.507Z,33.95
2022-08-12T15:23:37.948Z,33.95
2022-08-12T15:28:46.812Z,33.95
2022-08-12T15:33:54.781Z,33.75
2022-08-12T15:39:01.991Z,33.25
2022-08-12T15:44:08.993Z,32.75
2022-08-12T15:49:16.221Z,32.25
2022-08-12T15:54:23.767Z,31.55
2022-08-12T15:59:31.943Z,30.85
2022-08-12T16:04:39.777Z,30.45
2022-08-12T16:09:47.238Z,29.75
2022-08-12T16:14:54.939Z,29.05
2022-08-12T16:20:01.571Z,28.55
2022-08-12T16:25:09.374Z,28.55
2022-08-12T16:30:17.427Z,27.85
2022-08-12T16:35:25.632Z,27.65
2022-08-12T16:40:33.027Z,27.15
2022-08-12T16:45:40.705Z,26.75
2022-08-12T16:50:48.593Z,26.45
2022-08-12T16:55:55.784Z,26.25
2022-08-12T17:01:03.093Z,26.05
2022-08-12T17:06:10.584Z,25.55
2022-08-12T17:11:18.058Z,25.35
2022-08-12T17:16:25.369Z,24.95
2022-08-12T17:21:33.372Z,24.65
2022-08-12T17:26:41.469Z,24.65
2022-08-12T17:31:48.698Z,24.25
2022-08-12T17:36:57.519Z,23.75
2022-08-12T17:42:05.060Z,23.75
2022-08-12T17:47:13.844Z,23.55
2022-08-12T17:52:22.577Z,23.35
2022-08-12T17:57:29.221Z,22.95
2022-08-12T18:02:36.416Z,22.65
2022-08-12T18:07:44.259Z,22.25
2022-08-12T18:12:52.088Z,22.05
2022-08-12T18:17:59.842Z,21.55
2022-08-12T18:23:07.169Z,21.35
2022-08-12T18:28:14.024Z,21.15
2022-08-12T18:33:21.910Z,20.65
2022-08-12T18:38:30.019Z,20.45
2022-08-12T18:43:37.182Z,20.45
2022-08-12T18:48:45.131Z,20.25
2022-08-12T18:53:53.372Z,20.05
2022-08-12T18:59:01.859Z,20.05
2022-08-12T19:04:08.725Z,20.05
2022-08-12T19:09:16.378Z,20.25
2022-08-12T19:14:22.938Z,20.25
2022-08-12T19:19:30.176Z,20.05
2022-08-12T19:24:37.340Z,19.85
2022-08-12T19:29:45.286Z,19.85
2022-08-12T19:34:53.030Z,19.65
2022-08-12T19:39:59.619Z,19.65
2022-08-12T19:45:07.639Z,19.65
2022-08-12T19:50:15.561Z,19.65
2022-08-12T19:55:24.308Z,19.65
2022-08-12T20:00:31.205Z,19.35
2022-08-12T20:05:38.223Z,19.35
2022-08-12T20:10:45.369Z,19.15
2022-08-12T20:15:52.562Z,19.15
2022-08-12T20:21:00.639Z,18.95
2022-08-12T20:26:07.620Z,18.95
2022-08-12T20:31:15.592Z,18.95
2022-08-12T20:36:23.299Z,18.75
2022-08-12T20:41:30.539Z,18.75
2022-08-12T20:46:38.338Z,18.75
2022-08-12T20:51:45.498Z,18.75
2022-08-12T20:56:53.009Z,18.55
2022-08-12T21:02:00.539Z,18.55
2022-08-12T21:07:22.463Z,18.55
2022-08-12T21:12:29.841Z,18.55
2022-08-12T21:17:36.881Z,18.55
2022-08-12T21:22:45.850Z,18.55
2022-08-12T21:27:53.168Z,18.55
2022-08-12T21:33:02.219Z,18.55
2022-08-12T21:38:10.659Z,18.35
2022-08-12T21:43:19.189Z,18.35
2022-08-12T21:48:28.010Z,18.35
2022-08-12T21:53:36.606Z,18.05
2022-08-12T21:58:43.408Z,18.05
2022-08-12T22:03:50.139Z,17.85
2022-08-12T22:08:58.115Z,17.85
2022-08-12T22:14:06.023Z,17.85
2022-08-12T22:19:13.293Z,17.85
2022-08-12T22:24:21.370Z,17.85
2022-08-12T22:29:28.539Z,17.65
2022-08-12T22:34:36.908Z,17.65
2022-08-12T22:39:43.593Z,17.65
2022-08-12T22:44:51.420Z,17.65
2022-08-12T22:50:00.282Z,17.65
2022-08-12T22:55:08.341Z,17.65
2022-08-12T23:00:15.574Z,17.65
2022-08-12T23:05:23.267Z,17.45
2022-08-12T23:10:30.608Z,17.45
2022-08-12T23:15:37.809Z,17.45
2022-08-12T23:20:45.861Z,17.25
2022-08-12T23:25:54.008Z,17.25
2022-08-12T23:31:01.319Z,17.25
2022-08-12T23:36:09.132Z,17.25
2022-08-12T23:41:15.681Z,17.05
2022-08-12T23:46:22.299Z,17.05
2022-08-12T23:51:30.232Z,16.85
2022-08-12T23:56:38.182Z,16.85
